Hovedside
METAR-TAF:

METAR-TAF

Lufthavner :

Kramfors lufthavn

Kramfors, Sverige

breddegrad: 63-03N, lengdegrad: 017-46E, høyde over havet: 10 m

Gjeldene værobservasjon

Denne rapporten ble laget for 20 minutter siden, klokken 13:20 UTC
Flau vind
Temperatur 0°C
Luftfuktighet 100%
Trykk 1004 hPa
Sikt 10 km eller mer

METAR: ESNK 231320Z AUTO 00000KT 9999 FEW140/// 00/M00 Q1004

Tid: 14:40 (13:40 UTC)

Varsel

Denne rapporten ble laget for 8 timer og 10 minutter siden, klokken 05:30 UTC
Varsel gyldig fra 23. klokken 06 UTC til 23. klokken 10 UTC
Vind 8 kt fra Sør-sørvest
Sikt: 4000 m
Brutte skyer i en høyde av 2500 ft
lett snø
Midlertidig
fra 23. klokken 06 UTC til 23. klokken 10 UTC
Sikt: 2000 m
Brutte skyer i en høyde av 1200 ft
snø

TAF: ESNK 230530Z 2306/2310 21008KT 4000 -SN BKN025 TEMPO 2306/2310 2000 SN BKN012

Værobservasjoner og værvarsel for over 4000 flyplasser (METAR- og TAF-rapporter).

Tilgjengelige stasjoner er representert av de røde og gule prikkene på kartet.

Hold musepekeren over prikken for å se navnet på stasjonen.

Klikk så for å se værobservasjoner og -varsler.

For å forandre kartet kan du klikke på den grønne knappen med svart kryss for å zoome inn, på den grønne knappen med strek for å zoome ut, eller på de grønne pilene for å se tilstøtende kart.


METAR-TAF: